Latest Weather Observations for Khancoban

IDN60801

Issued at 10:32 pm EST Sunday 19 April 2015 (issued every 30 minutes, with the page automatically refreshed every 10 minutes)

About weather observations | Map of weather stations | Latest weather observations for NSW | Other Formats
Station Details ID: 072162 Name: KHANCOBAN AWS Lat: -36.23 Lon: 148.14 Height: 339.3 m
Data from the previous 72 hours. | See also: Recent months at Khancoban
Date/Time
EST
Temp
°C
App
Temp
°C
Dew
Point
Rel
Hum
%
Delta-T
°C
Wind Press
QNH
hPa
Press
MSL
hPa
Rain
since 9 am
mm
Dir
 
Spd
km/h
Gust
km/h
Spd
kts
Gust
kts
19/10:30pm 9.3 6.1 2.9 64 2.8 S 9 13 5 7 1029.2 1028.9 0.8
19/10:00pm 9.7 6.4 2.3 60 3.2 SE 9 19 5 10 1028.8 1028.5 0.8
19/09:30pm 9.6 5.9 2.2 60 3.2 SE 11 20 6 11 1028.6 1028.3 0.8
19/09:00pm 10.4 5.9 2.3 57 3.5 SSE 15 26 8 14 1028.3 1028.0 0.8
19/08:30pm 10.4 5.6 2.5 58 3.4 SSE 17 26 9 14 1028.0 1027.7 0.8
19/08:00pm 10.2 6.6 3.0 61 3.1 SE 11 20 6 11 1027.4 1027.1 0.8
19/07:30pm 9.7 7.8 4.7 71 2.3 SSE 4 7 2 4 1027.1 1026.8 0.8
19/07:00pm 9.8 6.9 4.6 70 2.4 SE 9 11 5 6 1026.6 1026.3 0.8
19/06:30pm 11.2 5.9 2.0 53 4.0 S 19 24 10 13 1026.2 1025.9 0.8
19/06:00pm 11.8 5.6 2.3 52 4.2 SSW 24 32 13 17 1025.5 1025.2 0.8
19/05:36pm 12.2 6.0 2.4 51 4.3 S 24 46 13 25 1025.2 1024.8 0.8
19/05:30pm 12.4 8.3 2.3 50 4.5 S 13 33 7 18 1025.1 1024.7 0.8
19/05:00pm 12.7 7.4 3.1 52 4.3 S 20 33 11 18 1024.4 1024.1 0.8
19/04:30pm 13.2 8.6 3.6 52 4.4 S 17 22 9 12 1023.7 1023.4 0.8
19/04:00pm 13.2 8.6 3.8 53 4.3 SSW 17 24 9 13 1023.5 1023.2 0.8
19/03:30pm 13.8 9.3 4.1 52 4.5 SSW 17 24 9 13 1023.1 1022.8 0.8
19/03:00pm 13.4 8.4 4.8 56 4.0 SSW 20 26 11 14 1023.2 1022.9 0.8
19/02:30pm 13.5 8.5 4.6 55 4.2 SW 20 26 11 14 1022.9 1022.6 0.8
19/02:00pm 13.4 8.4 3.5 51 4.5 SSE 19 32 10 17 1022.8 1022.4 0.8
19/01:30pm 13.0 7.9 3.9 54 4.2 S 20 28 11 15 1022.6 1022.2 0.8
19/01:00pm 12.8 7.1 4.8 58 3.7 SSE 24 43 13 23 1022.4 1022.0 0.8
19/12:55pm 12.5 5.9 4.0 56 3.9 SSE 28 43 15 23 1022.5 1022.1 0.8
19/12:30pm 12.9 7.9 3.8 54 4.2 SSE 19 24 10 13 1022.2 1021.8 0.8
19/12:00pm 12.6 7.4 3.8 55 4.0 S 20 33 11 18 1022.4 1022.0 0.8
19/11:30am 12.2 6.8 4.7 60 3.5 SE 22 33 12 18 1022.4 1022.0 0.8
19/11:00am 11.8 7.6 5.9 67 2.8 SSE 17 24 9 13 1022.1 1021.7 0.8
19/10:30am 11.4 7.5 6.9 74 2.2 S 17 26 9 14 1021.8 1021.4 0.8
19/10:00am 10.8 7.7 7.3 79 1.7 SSE 13 24 7 13 1021.6 1021.2 0.8
19/09:30am 10.3 8.3 10.1 99 0.1 SSW 11 13 6 7 1021.1 1020.8 0.6
19/09:00am 10.1 5.2 10.1 100 0.0 SSW 26 33 14 18 1020.4 1020.1 24.4
19/08:54am 10.2 5.0 10.2 100 0.0 SW 28 35 15 19 1020.1 1019.7 23.8
19/08:30am 11.9 12.5 11.9 100 0.0 CALM 0 0 0 0 1019.7 1019.3 22.2
19/08:00am 11.8 12.4 11.8 100 0.0 CALM 0 4 0 2 1019.3 1018.9 22.2
19/07:30am 11.6 12.1 11.6 100 0.0 CALM 0 0 0 0 1018.8 1018.4 22.0
19/07:00am 11.5 12.0 11.5 100 0.0 CALM 0 0 0 0 1018.1 1017.8 21.8
19/06:30am 11.5 12.0 11.5 100 0.0 CALM 0 0 0 0 1017.6 1017.2 21.2
19/06:00am 11.5 12.0 11.5 100 0.0 CALM 0 0 0 0 1017.4 1017.0 20.6
19/05:30am 11.7 12.2 11.7 100 0.0 CALM 0 0 0 0 1017.0 1016.6 20.4
19/05:00am 11.9 12.5 11.9 100 0.0 CALM 0 0 0 0 1016.9 1016.5 19.8
19/04:30am 11.9 12.5 11.9 100 0.0 CALM 0 0 0 0 1016.9 1016.5 19.8
19/04:00am 11.8 12.4 11.8 100 0.0 CALM 0 0 0 0 1016.6 1016.2 19.6
19/03:30am 12.0 12.2 11.8 99 0.1 SSE 2 6 1 3 1016.7 1016.3 19.6
19/03:00am 12.0 12.6 11.8 99 0.1 CALM 0 0 0 0 1016.8 1016.4 19.6
19/02:30am 12.3 13.0 12.1 99 0.1 CALM 0 0 0 0 1017.0 1016.6 19.6
19/02:00am 11.9 12.5 11.9 100 0.0 CALM 0 4 0 2 1016.9 1016.5 19.6
19/01:30am 12.0 10.9 11.8 99 0.1 N 9 13 5 7 1016.6 1016.2 19.6
19/01:00am 13.2 11.5 11.1 87 1.1 NNE 11 13 6 7 1016.6 1016.2 19.6
19/12:30am 13.2 12.4 13.0 99 0.1 N 9 15 5 8 1016.5 1016.1 19.6
19/12:00am 13.6 13.0 13.4 99 0.1 NNE 9 13 5 7 1016.3 1015.9 19.6
 
Date/Time
EST
Temp
°C
App
Temp
°C
Dew
Point
Rel
Hum
%
Delta-T
°C
Wind Press
QNH
hPa
Press
MSL
hPa
Rain
since 9 am
mm
Dir
 
Spd
km/h
Gust
km/h
Spd
kts
Gust
kts
18/11:30pm 14.8 14.1 13.3 91 0.8 NNW 9 15 5 8 1015.8 1015.4 19.6
18/11:00pm 15.3 14.9 14.0 92 0.7 NNW 9 15 5 8 1015.6 1015.2 19.6
18/10:30pm 15.5 16.2 15.5 100 0.0 WNW 6 9 3 5 1015.5 1015.1 19.6
18/10:00pm 15.4 16.0 15.4 100 0.0 WNW 6 9 3 5 1015.2 1014.7 19.4
18/09:30pm 15.4 16.0 15.4 100 0.0 SSW 6 7 3 4 1014.9 1014.5 19.0
18/09:00pm 15.4 17.2 15.4 100 0.0 CALM 0 0 0 0 1014.9 1014.5 19.0
18/08:30pm 15.2 15.6 15.2 100 0.0 N 7 11 4 6 1014.8 1014.4 18.8
18/08:00pm 15.3 15.7 15.3 100 0.0 NNW 7 13 4 7 1014.2 1013.8 18.6
18/07:30pm 15.3 16.3 15.3 100 0.0 E 4 7 2 4 1014.5 1014.1 18.0
18/07:00pm 15.3 16.7 15.3 100 0.0 W 2 7 1 4 1014.4 1014.0 16.4
18/06:30pm 15.8 16.0 15.8 100 0.0 ENE 9 13 5 7 1013.7 1013.3 14.6
18/06:00pm 15.7 15.5 15.7 100 0.0 NE 11 17 6 9 1013.7 1013.3 13.8
18/05:30pm 16.3 15.2 16.3 100 0.0 NW 17 28 9 15 1013.2 1012.8 11.0
18/05:00pm 17.9 18.1 16.8 93 0.7 NNE 11 15 6 8 1012.2 1011.7 5.8
18/04:30pm 18.7 17.5 16.1 85 1.6 N 17 24 9 13 1012.2 1011.7 5.2
18/04:00pm 18.9 17.9 16.5 86 1.5 N 17 24 9 13 1012.5 1012.0 5.2
18/03:30pm 18.9 17.8 16.3 85 1.6 N 17 24 9 13 1012.5 1012.0 5.2
18/03:00pm 18.6 17.7 16.8 89 1.1 N 17 24 9 13 1012.9 1012.5 5.2
18/02:30pm 17.8 18.4 17.6 99 0.1 N 11 17 6 9 1013.0 1012.6 5.2
18/02:00pm 17.6 18.9 17.6 100 0.0 NW 7 9 4 5 1013.2 1012.8 3.6
18/01:30pm 18.0 19.3 17.2 95 0.5 NW 6 15 3 8 1013.6 1013.2 3.4
18/01:00pm 18.5 20.7 16.5 88 1.2 CALM 0 0 0 0 1014.0 1013.6 3.2
18/12:30pm 18.3 18.9 16.8 91 0.9 NNE 9 13 5 7 1014.3 1013.9 3.2
18/12:00pm 17.3 19.4 17.3 100 0.0 NNE 2 7 1 4 1015.6 1015.2 3.2
18/11:30am 17.3 19.1 17.3 100 0.0 S 4 7 2 4 1016.2 1015.8 3.2
18/11:00am 17.3 18.0 17.1 99 0.1 N 9 11 5 6 1016.6 1016.2 2.4
18/10:30am 17.3 18.7 17.3 100 0.0 N 6 9 3 5 1016.9 1016.5 2.0
18/10:00am 16.8 18.4 16.8 100 0.0 S 4 7 2 4 1017.2 1016.8 1.6
18/09:30am 16.7 19.0 16.7 100 0.0 CALM 0 6 0 3 1017.3 1016.9 1.0
18/09:00am 16.5 17.6 16.5 100 0.0 SW 6 7 3 4 1017.4 1017.0 24.6
18/08:30am 16.1 17.4 16.1 100 0.0 W 4 7 2 4 1017.5 1017.1 24.0
18/08:00am 15.6 16.7 15.6 100 0.0 WNW 4 15 2 8 1017.4 1017.0 20.6
18/07:30am 15.6 17.4 15.6 100 0.0 CALM 0 0 0 0 1016.3 1015.9 18.8
18/07:00am 15.5 17.3 15.5 100 0.0 CALM 0 4 0 2 1016.3 1015.9 18.6
18/06:30am 15.4 16.8 15.4 100 0.0 NNE 2 7 1 4 1016.1 1015.7 18.6
18/06:00am 15.3 15.7 15.3 100 0.0 NNE 7 9 4 5 1015.8 1015.4 18.6
18/05:30am 15.3 14.9 15.3 100 0.0 SSW 11 17 6 9 1015.8 1015.4 18.6
18/05:00am 15.4 17.2 15.4 100 0.0 CALM 0 0 0 0 1015.8 1015.4 18.2
18/04:30am 15.5 16.2 15.5 100 0.0 SSE 6 7 3 4 1016.1 1015.7 18.2
18/04:00am 15.1 15.1 15.1 100 0.0 NNW 9 17 5 9 1016.2 1015.8 18.0
18/03:30am 14.9 16.5 14.9 100 0.0 CALM 0 6 0 3 1015.7 1015.3 12.8
18/03:00am 14.7 14.9 14.7 100 0.0 NNW 7 9 4 5 1015.6 1015.2 12.0
18/02:30am 14.8 16.4 14.8 100 0.0 CALM 0 4 0 2 1015.7 1015.3 11.6
18/02:00am 14.8 15.6 14.8 100 0.0 SSW 4 9 2 5 1016.3 1015.9 11.6
18/01:30am 14.8 15.6 14.8 100 0.0 NE 4 9 2 5 1017.2 1016.8 11.4
18/01:00am 14.8 15.0 14.8 100 0.0 NNE 7 9 4 5 1017.7 1017.3 11.4
18/12:30am 14.6 16.1 14.6 100 0.0 CALM 0 7 0 4 1018.0 1017.7 11.2
18/12:00am 14.6 15.7 14.6 100 0.0 W 2 7 1 4 1018.8 1018.4 10.8
 
Date/Time
EST
Temp
°C
App
Temp
°C
Dew
Point
Rel
Hum
%
Delta-T
°C
Wind Press
QNH
hPa
Press
MSL
hPa
Rain
since 9 am
mm
Dir
 
Spd
km/h
Gust
km/h
Spd
kts
Gust
kts
17/11:30pm 14.7 16.2 14.7 100 0.0 CALM 0 0 0 0 1019.2 1018.8 10.0
17/11:00pm 14.6 14.9 14.6 100 0.0 W 6 9 3 5 1019.4 1019.0 9.2
17/10:30pm 14.6 16.1 14.6 100 0.0 CALM 0 0 0 0 1019.2 1018.8 8.0
17/10:00pm 14.6 15.7 14.6 100 0.0 W 2 6 1 3 1019.3 1018.9 7.2
17/09:30pm 14.7 15.8 14.7 100 0.0 N 2 7 1 4 1019.3 1018.9 6.8
17/09:00pm 14.7 15.8 14.7 100 0.0 NNE 2 6 1 3 1019.1 1018.7 6.4
17/08:30pm 14.5 14.6 14.5 100 0.0 N 7 11 4 6 1019.2 1018.8 5.8
17/08:00pm 14.5 15.9 14.5 100 0.0 CALM 0 0 0 0 1019.3 1018.9 5.4
17/07:30pm 14.4 15.8 14.4 100 0.0 CALM 0 0 0 0 1019.4 1019.0 5.0
17/07:00pm 14.6 16.1 14.6 100 0.0 CALM 0 0 0 0 1019.7 1019.3 4.8
17/06:30pm 14.6 16.1 14.6 100 0.0 CALM 0 4 0 2 1019.5 1019.1 4.6
17/06:00pm 14.6 16.1 14.6 100 0.0 CALM 0 2 0 1 1019.5 1019.1 4.2
17/05:30pm 14.7 14.9 14.7 100 0.0 NNW 7 9 4 5 1019.4 1019.0 4.0
17/05:00pm 14.9 16.1 14.9 100 0.0 SSE 2 7 1 4 1019.6 1019.2 3.6
17/04:30pm 14.8 15.2 14.8 100 0.0 WSW 6 7 3 4 1019.5 1019.1 2.8
17/04:00pm 15.2 16.1 15.2 100 0.0 W 4 6 2 3 1019.8 1019.4 1.8
17/03:30pm 15.8 17.4 15.0 95 0.5 CALM 0 0 0 0 1020.0 1019.6 1.2
17/03:00pm 15.9 17.1 14.9 94 0.6 NW 2 7 1 4 1020.2 1019.8 0.8
17/02:30pm 16.2 16.5 14.4 89 1.0 WNW 6 7 3 4 1020.3 1019.9 0.8
17/02:00pm 16.1 17.4 15.1 94 0.6 WNW 2 7 1 4 1020.3 1019.9 0.8
17/01:30pm 15.9 16.2 14.6 92 0.8 WNW 6 7 3 4 1020.9 1020.6 0.8
17/01:00pm 16.2 17.7 14.7 91 0.9 CALM 0 0 0 0 1021.5 1021.1 0.8
17/12:30pm 15.8 16.0 14.3 91 0.9 WNW 6 9 3 5 1022.1 1021.7 0.4
17/12:00pm 15.6 15.8 14.8 95 0.5 SW 7 11 4 6 1022.4 1022.0 0.4
17/11:30am 16.4 17.4 13.1 81 1.9 CALM 0 4 0 2 1022.8 1022.4 0.2
17/11:00am 16.6 17.4 12.4 76 2.3 CALM 0 6 0 3 1023.9 1023.6 0.0
17/10:30am 16.1 17.5 14.3 89 1.0 CALM 0 0 0 0 1024.3 1024.0 0.0
17/10:00am 15.8 16.7 15.0 95 0.5 W 4 7 2 4 1024.4 1024.1 0.0
17/09:30am 14.9 16.4 14.6 98 0.2 CALM 0 0 0 0 1024.6 1024.2 0.0
17/09:00am 14.4 15.7 14.2 99 0.1 CALM 0 0 0 0 1024.8 1024.4 0.4
17/08:30am 14.0 15.3 14.0 100 0.0 CALM 0 0 0 0 1024.9 1024.5 0.4
17/08:00am 14.0 15.2 13.8 99 0.1 CALM 0 0 0 0 1024.8 1024.4 0.2
17/07:30am 13.8 15.0 13.8 100 0.0 CALM 0 0 0 0 1024.6 1024.2 0.2
17/07:00am 14.0 14.0 13.7 98 0.2 NNE 6 6 3 3 1024.2 1023.9 0.2
17/06:30am 13.6 13.9 13.4 99 0.1 SSE 4 7 2 4 1023.8 1023.5 0.2
17/06:00am 13.7 13.9 13.2 97 0.3 S 4 6 2 3 1023.5 1023.2 0.2
17/05:30am 13.8 14.9 13.5 98 0.2 CALM 0 0 0 0 1023.0 1022.7 0.2
17/05:00am 14.1 13.8 12.8 92 0.7 NE 6 7 3 4 1022.6 1022.2 0.2
17/04:30am 13.8 14.7 12.9 94 0.5 CALM 0 0 0 0 1022.3 1021.9 0.2
17/04:00am 14.1 14.9 12.7 91 0.8 CALM 0 0 0 0 1022.1 1021.7 0.2
17/03:30am 14.5 15.3 12.7 89 1.0 CALM 0 6 0 3 1022.1 1021.7 0.2
17/03:00am 14.5 15.3 12.4 87 1.2 CALM 0 0 0 0 1022.3 1021.9 0.2
17/02:30am 14.2 15.1 12.9 92 0.7 CALM 0 0 0 0 1022.5 1022.1 0.2
17/02:00am 14.6 14.2 12.5 87 1.2 NNE 6 9 3 5 1022.9 1022.6 0.2
17/01:30am 14.5 15.3 12.5 88 1.1 CALM 0 0 0 0 1023.0 1022.7 0.2
17/01:00am 14.8 14.4 12.3 85 1.4 SE 6 9 3 5 1023.3 1023.0 0.2
17/12:30am 14.4 13.4 12.4 88 1.1 WSW 9 17 5 9 1023.6 1023.3 0.2
17/12:00am 14.9 15.2 12.2 84 1.5 ENE 2 7 1 4 1023.9 1023.6 0.2
 
Date/Time
EST
Temp
°C
App
Temp
°C
Dew
Point
Rel
Hum
%
Delta-T
°C
Wind Press
QNH
hPa
Press
MSL
hPa
Rain
since 9 am
mm
Dir
 
Spd
km/h
Gust
km/h
Spd
kts
Gust
kts
16/11:30pm 14.1 13.8 12.7 91 0.8 W 6 7 3 4 1024.3 1024.0 0.2
16/11:00pm 14.2 14.1 12.2 88 1.1 SE 4 9 2 5 1024.4 1024.1 0.2

Other Formats:

Comma delimited format used in spreadsheet applications
http://www.bom.gov.au/fwo/IDN60801/IDN60801.94919.axf

JavaScript Object Notation format (JSON) in row-major order
http://www.bom.gov.au/fwo/IDN60801/IDN60801.94919.json